createdAt,value
2023-03-29T00:01:37.045Z,101168.19
2023-03-29T00:04:41.316Z,101193.16
2023-03-29T00:07:44.100Z,101194.41
2023-03-29T00:10:48.890Z,101187.31
2023-03-29T00:13:51.481Z,101195.81
2023-03-29T00:16:54.257Z,101190.41
2023-03-29T00:19:56.834Z,101190.78
2023-03-29T00:22:59.784Z,101186.41
2023-03-29T00:26:02.506Z,101189.81
2023-03-29T00:29:05.432Z,101186.84
2023-03-29T00:32:08.325Z,101186.44
2023-03-29T00:35:11.128Z,101187.13
2023-03-29T00:38:14.491Z,101183.66
2023-03-29T00:41:17.730Z,101191.16
2023-03-29T00:44:58.136Z,101186.88
2023-03-29T00:48:03.624Z,101188.53
2023-03-29T00:51:10.048Z,101181.00
2023-03-29T00:54:15.164Z,101186.03
2023-03-29T00:57:19.126Z,101183.31
2023-03-29T01:00:24.727Z,101180.59
2023-03-29T01:03:33.056Z,101171.44
2023-03-29T01:06:37.562Z,101172.75
2023-03-29T01:09:43.041Z,101171.63
2023-03-29T01:12:50.490Z,101167.16
2023-03-29T01:15:54.368Z,101174.66
2023-03-29T01:19:00.421Z,101173.38
2023-03-29T01:22:26.109Z,101167.94
2023-03-29T01:25:39.623Z,101162.37
2023-03-29T01:28:49.705Z,101173.56
2023-03-29T01:32:19.426Z,101173.09
2023-03-29T01:35:36.377Z,101174.94
2023-03-29T01:38:51.765Z,101164.59
2023-03-29T01:42:20.412Z,101170.88
2023-03-29T01:45:29.298Z,101169.56
2023-03-29T01:48:37.754Z,101147.25
2023-03-29T01:51:43.906Z,101159.44
2023-03-29T01:55:03.597Z,101152.19
2023-03-29T01:58:08.583Z,101157.44
2023-03-29T02:01:17.693Z,101160.50
2023-03-29T02:04:25.645Z,101163.22
2023-03-29T02:07:30.814Z,101158.53
2023-03-29T02:10:34.393Z,101156.22
2023-03-29T02:13:38.955Z,101158.69
2023-03-29T02:16:42.028Z,101149.47
2023-03-29T02:19:50.187Z,101149.63
2023-03-29T02:23:02.353Z,101148.09
2023-03-29T02:26:06.791Z,101145.87
2023-03-29T02:29:09.913Z,101142.63
2023-03-29T02:32:27.463Z,101133.66
2023-03-29T02:35:36.986Z,101131.78
2023-03-29T02:38:40.269Z,101130.69
2023-03-29T02:41:44.613Z,101119.25
2023-03-29T02:44:51.119Z,101118.25
2023-03-29T02:47:55.755Z,101123.78
2023-03-29T02:51:01.621Z,101123.12
2023-03-29T02:54:21.938Z,101111.13
2023-03-29T02:57:28.757Z,101118.34
2023-03-29T03:00:31.290Z,101119.00
2023-03-29T03:03:35.768Z,101116.59
2023-03-29T03:06:38.894Z,101126.28
2023-03-29T03:09:41.826Z,101136.66
2023-03-29T03:12:44.796Z,101147.34
2023-03-29T03:15:49.452Z,101135.81
2023-03-29T03:18:52.534Z,101137.28
2023-03-29T03:21:56.111Z,101143.72
2023-03-29T03:24:58.551Z,101142.72
2023-03-29T03:28:02.473Z,101140.25
2023-03-29T03:31:05.750Z,101145.53
2023-03-29T03:34:11.242Z,101139.13
2023-03-29T03:37:16.033Z,101134.91
2023-03-29T03:40:18.961Z,101135.09
2023-03-29T03:43:22.322Z,101139.38
2023-03-29T03:46:26.275Z,101144.38
2023-03-29T03:49:30.279Z,101142.56
2023-03-29T03:52:33.289Z,101142.41
2023-03-29T03:55:36.078Z,101148.50
2023-03-29T03:58:39.711Z,101139.78
2023-03-29T04:01:43.870Z,101135.50
2023-03-29T04:04:47.718Z,101132.94
2023-03-29T04:07:50.391Z,101128.84
2023-03-29T04:10:55.540Z,101123.94
2023-03-29T04:13:58.627Z,101127.19
2023-03-29T04:17:01.990Z,101131.34
2023-03-29T04:20:12.883Z,101126.66
2023-03-29T04:23:16.285Z,101123.34
2023-03-29T04:26:19.528Z,101127.06
2023-03-29T04:29:22.682Z,101128.87
2023-03-29T04:32:25.687Z,101119.22
2023-03-29T04:35:29.424Z,101119.16
2023-03-29T04:38:36.134Z,101137.94
2023-03-29T04:41:39.196Z,101125.88
2023-03-29T04:44:43.641Z,101121.84
2023-03-29T04:47:48.284Z,101127.56
2023-03-29T04:50:51.543Z,101120.78
2023-03-29T04:53:55.380Z,101122.59
2023-03-29T04:56:58.002Z,101133.00
2023-03-29T05:00:08.386Z,101113.53
2023-03-29T05:03:14.550Z,101125.75
2023-03-29T05:06:18.086Z,101095.91
2023-03-29T05:09:21.121Z,101117.31
2023-03-29T05:12:24.141Z,101120.16
2023-03-29T05:15:27.212Z,101111.75
2023-03-29T05:18:31.109Z,101110.84
2023-03-29T05:21:34.379Z,101100.78
2023-03-29T05:24:37.807Z,101105.63
2023-03-29T05:27:41.146Z,101097.47
2023-03-29T05:30:44.718Z,101070.97
2023-03-29T05:33:48.533Z,101092.31
2023-03-29T05:36:51.907Z,101098.81
2023-03-29T05:39:55.071Z,101101.22
2023-03-29T05:43:09.650Z,101103.62
2023-03-29T05:46:12.827Z,101107.03
2023-03-29T05:49:16.971Z,101108.09
2023-03-29T05:52:22.291Z,101110.09
2023-03-29T05:55:25.261Z,101117.91
2023-03-29T05:58:28.678Z,101122.16
2023-03-29T06:01:32.385Z,101113.62
2023-03-29T06:04:36.664Z,101115.00
2023-03-29T06:07:40.839Z,101123.03
2023-03-29T06:10:45.477Z,101111.00
2023-03-29T06:13:48.928Z,101105.84
2023-03-29T06:16:52.030Z,101100.22
2023-03-29T06:19:54.950Z,101105.91
2023-03-29T06:22:58.988Z,101116.09
2023-03-29T06:26:02.421Z,101116.69
2023-03-29T06:29:05.690Z,101090.53
2023-03-29T06:32:08.642Z,101100.91
2023-03-29T06:35:13.570Z,101105.91
2023-03-29T06:38:16.738Z,101101.72
2023-03-29T06:41:21.514Z,101078.22
2023-03-29T06:44:25.607Z,101108.50
2023-03-29T06:47:31.635Z,101110.91
2023-03-29T06:50:35.177Z,101108.72
2023-03-29T06:53:38.551Z,101094.84
2023-03-29T06:56:42.512Z,101093.34
2023-03-29T06:59:47.804Z,101070.94
2023-03-29T07:02:51.173Z,101097.72
2023-03-29T07:06:01.572Z,101083.50
2023-03-29T07:09:06.853Z,101100.72
2023-03-29T07:12:10.765Z,101113.78
2023-03-29T07:15:16.228Z,101105.88
2023-03-29T07:18:22.046Z,101109.88
2023-03-29T07:21:24.920Z,101108.47
2023-03-29T07:24:28.624Z,101104.69
2023-03-29T07:27:32.742Z,101107.53
2023-03-29T07:30:37.190Z,101100.19
2023-03-29T07:33:42.799Z,101100.22
2023-03-29T07:36:45.960Z,101099.44
2023-03-29T07:39:48.653Z,101092.84
2023-03-29T07:42:54.331Z,101099.84
2023-03-29T07:46:01.722Z,101090.50
2023-03-29T07:49:05.670Z,101088.34
2023-03-29T07:52:09.193Z,101083.88
2023-03-29T07:55:13.384Z,101089.69
2023-03-29T07:58:19.324Z,101083.25
2023-03-29T08:01:22.461Z,101078.53
2023-03-29T08:04:28.922Z,101063.47
2023-03-29T08:07:44.170Z,101074.13
2023-03-29T08:10:48.381Z,101071.22
2023-03-29T08:13:51.688Z,101067.19
2023-03-29T08:16:56.008Z,101067.06
2023-03-29T08:19:58.692Z,101059.56
2023-03-29T08:23:01.869Z,101048.22
2023-03-29T08:26:04.974Z,101048.19
2023-03-29T08:29:09.142Z,101035.62
2023-03-29T08:32:12.158Z,101038.88
2023-03-29T08:35:15.377Z,101027.94
2023-03-29T08:38:19.063Z,101022.44
2023-03-29T08:41:46.170Z,101043.34
2023-03-29T08:45:04.154Z,101007.59
2023-03-29T08:48:10.134Z,101013.09
2023-03-29T08:51:37.363Z,101005.00
2023-03-29T08:54:43.994Z,101003.13
2023-03-29T08:57:56.003Z,100983.28
2023-03-29T09:01:05.138Z,100999.22
2023-03-29T09:04:17.454Z,100997.34
2023-03-29T09:07:21.127Z,100998.53
2023-03-29T09:10:39.273Z,101003.81
2023-03-29T09:14:08.607Z,100995.91
2023-03-29T09:17:48.329Z,100997.22
2023-03-29T09:21:38.180Z,100993.78
2023-03-29T09:24:59.149Z,101000.94
2023-03-29T09:28:10.757Z,101002.91
2023-03-29T09:31:21.601Z,100991.00
2023-03-29T09:34:42.162Z,100993.91
2023-03-29T09:37:46.809Z,100986.91
2023-03-29T09:40:59.389Z,101002.16
2023-03-29T09:44:10.895Z,100994.22
2023-03-29T09:47:40.916Z,100985.41
2023-03-29T09:50:47.264Z,100968.09
2023-03-29T09:53:50.637Z,100987.69
2023-03-29T09:56:55.584Z,100982.97
2023-03-29T09:59:59.848Z,100994.25
2023-03-29T10:03:04.637Z,100981.66
2023-03-29T10:06:11.961Z,100969.06
2023-03-29T10:09:23.335Z,100976.59
2023-03-29T10:12:26.732Z,100966.63
2023-03-29T10:15:30.663Z,100967.44
2023-03-29T10:18:39.864Z,100971.50
2023-03-29T10:21:42.402Z,100968.53
2023-03-29T10:24:51.389Z,100961.66
2023-03-29T10:27:56.290Z,100954.59
2023-03-29T10:31:01.266Z,100950.19
2023-03-29T10:34:05.452Z,100931.75
2023-03-29T10:37:09.289Z,100944.12
2023-03-29T10:40:29.551Z,100924.75
2023-03-29T10:43:43.692Z,100939.50
2023-03-29T10:46:46.545Z,100941.91
2023-03-29T10:49:56.965Z,100943.22
2023-03-29T10:53:01.743Z,100928.09
2023-03-29T10:56:13.931Z,100927.88
2023-03-29T10:59:24.842Z,100925.59
2023-03-29T11:02:45.011Z,100930.56
2023-03-29T11:05:48.998Z,100927.94
2023-03-29T11:09:00.102Z,100913.06
2023-03-29T11:12:26.972Z,100915.34
2023-03-29T11:15:48.396Z,100901.69
2023-03-29T11:19:06.800Z,100904.28
2023-03-29T11:22:27.929Z,100905.75
2023-03-29T11:25:33.564Z,100898.19
2023-03-29T11:29:04.589Z,100890.00
2023-03-29T11:32:33.578Z,100888.22
2023-03-29T11:35:48.142Z,100877.59
2023-03-29T11:39:20.353Z,100863.50
2023-03-29T11:42:32.241Z,100863.69
2023-03-29T11:45:39.962Z,100857.87
2023-03-29T11:49:07.816Z,100856.16
2023-03-29T11:52:30.923Z,100854.13
2023-03-29T11:55:36.138Z,100855.94
2023-03-29T11:58:42.568Z,100849.44
2023-03-29T12:01:57.392Z,100846.44
2023-03-29T12:05:07.556Z,100852.59
2023-03-29T12:08:22.312Z,100846.53
2023-03-29T12:11:38.053Z,100843.03
2023-03-29T12:15:01.578Z,100843.09
2023-03-29T12:18:14.536Z,100842.28
2023-03-29T12:21:22.955Z,100840.00
2023-03-29T12:24:30.277Z,100826.16
2023-03-29T12:27:46.969Z,100812.28
2023-03-29T12:30:53.243Z,100839.44
2023-03-29T12:34:14.622Z,100838.94
2023-03-29T12:37:32.058Z,100836.91
2023-03-29T12:40:42.868Z,100831.66
2023-03-29T12:43:54.050Z,100827.06
2023-03-29T12:47:00.514Z,100826.56
2023-03-29T12:50:04.738Z,100820.53
2023-03-29T12:53:46.619Z,100821.38
2023-03-29T12:56:52.329Z,100810.22
2023-03-29T12:59:55.145Z,100827.22
2023-03-29T13:03:06.524Z,100829.06
2023-03-29T13:06:11.159Z,100829.84
2023-03-29T13:09:23.765Z,100820.41
2023-03-29T13:12:37.474Z,100815.41
2023-03-29T13:15:40.679Z,100816.13
2023-03-29T13:18:56.728Z,100819.50
2023-03-29T13:22:40.040Z,100817.97
2023-03-29T13:25:57.885Z,100816.84
2023-03-29T13:29:16.294Z,100811.59
2023-03-29T13:32:27.967Z,100815.41
2023-03-29T13:35:45.478Z,100812.69
2023-03-29T13:38:53.755Z,100807.63
2023-03-29T13:42:35.500Z,100811.06
2023-03-29T13:45:39.026Z,100802.06
2023-03-29T13:48:41.740Z,100813.28
2023-03-29T13:51:53.593Z,100815.97
2023-03-29T13:55:02.420Z,100806.94
2023-03-29T13:58:21.083Z,100800.56
2023-03-29T14:01:28.592Z,100790.75
2023-03-29T14:04:37.836Z,100780.81
2023-03-29T14:07:45.234Z,100789.72
2023-03-29T14:10:48.564Z,100783.31
2023-03-29T14:13:59.208Z,100786.00
2023-03-29T14:17:02.286Z,100784.25
2023-03-29T14:20:09.301Z,100789.84
2023-03-29T14:23:18.186Z,100791.69
2023-03-29T14:26:22.873Z,100777.16
2023-03-29T14:29:31.230Z,100776.16
2023-03-29T14:32:34.029Z,100782.66
2023-03-29T14:35:38.010Z,100776.16
2023-03-29T14:38:40.778Z,100776.28
2023-03-29T14:41:52.958Z,100772.78
2023-03-29T14:45:06.562Z,100771.03
2023-03-29T14:48:12.708Z,100770.19
2023-03-29T14:51:15.644Z,100772.87
2023-03-29T14:54:24.266Z,100768.38
2023-03-29T14:57:31.741Z,100760.19
2023-03-29T15:00:41.596Z,100774.59
2023-03-29T15:03:50.782Z,100757.66
2023-03-29T15:06:55.157Z,100754.09
2023-03-29T15:09:58.733Z,100763.09
2023-03-29T15:13:07.339Z,100753.28
2023-03-29T15:16:14.069Z,100755.09
2023-03-29T15:19:19.160Z,100732.75
2023-03-29T15:22:21.804Z,100750.66
2023-03-29T15:25:28.471Z,100754.22
2023-03-29T15:28:36.035Z,100744.38
2023-03-29T15:31:41.924Z,100753.34
2023-03-29T15:34:44.686Z,100749.78
2023-03-29T15:37:47.571Z,100738.06
2023-03-29T15:40:50.427Z,100748.87
2023-03-29T15:43:56.255Z,100739.91
2023-03-29T15:46:59.886Z,100715.75
2023-03-29T15:50:02.999Z,100734.53
2023-03-29T15:53:14.802Z,100738.09
2023-03-29T15:56:20.484Z,100702.28
2023-03-29T15:59:23.381Z,100723.78
2023-03-29T16:02:26.684Z,100717.47
2023-03-29T16:05:30.039Z,100715.72
2023-03-29T16:08:32.801Z,100709.47
2023-03-29T16:11:36.455Z,100714.81
2023-03-29T16:14:39.049Z,100711.25
2023-03-29T16:17:41.799Z,100707.66
2023-03-29T16:20:44.469Z,100707.66
2023-03-29T16:23:47.434Z,100716.59
2023-03-29T16:26:51.733Z,100708.53
2023-03-29T16:29:56.233Z,100705.84
2023-03-29T16:32:58.970Z,100706.72
2023-03-29T16:36:01.842Z,100714.78
2023-03-29T16:39:05.654Z,100710.28
2023-03-29T16:42:10.364Z,100711.16
2023-03-29T16:45:16.720Z,100709.34
2023-03-29T16:48:19.867Z,100709.34
2023-03-29T16:51:22.620Z,100702.19
2023-03-29T16:54:26.643Z,100704.84
2023-03-29T16:57:29.220Z,100705.75
2023-03-29T17:00:33.196Z,100712.00
2023-03-29T17:03:37.367Z,100715.59
2023-03-29T17:06:40.981Z,100706.62
2023-03-29T17:09:45.854Z,100704.84
2023-03-29T17:12:48.648Z,100703.94
2023-03-29T17:15:52.679Z,100704.81
2023-03-29T17:18:56.432Z,100695.88
2023-03-29T17:21:59.191Z,100703.00
2023-03-29T17:25:03.826Z,100697.63
2023-03-29T17:28:06.420Z,100699.38
2023-03-29T17:31:09.355Z,100701.16
2023-03-29T17:34:12.145Z,100702.94
2023-03-29T17:37:14.919Z,100695.78
2023-03-29T17:40:18.570Z,100707.38
2023-03-29T17:43:21.709Z,100709.13
2023-03-29T17:46:24.512Z,100715.37
2023-03-29T17:49:27.859Z,100716.22
2023-03-29T17:52:30.437Z,100712.66
2023-03-29T17:55:33.415Z,100712.69
2023-03-29T17:58:36.075Z,100721.59
2023-03-29T18:01:39.498Z,100712.69
2023-03-29T18:04:42.423Z,100721.59
2023-03-29T18:07:45.038Z,100720.69
2023-03-29T18:10:47.965Z,100726.03
2023-03-29T18:13:51.557Z,100729.59
2023-03-29T18:16:54.387Z,100733.16
2023-03-29T18:19:57.480Z,100730.47
2023-03-29T18:23:00.412Z,100742.06
2023-03-29T18:26:04.636Z,100737.56
2023-03-29T18:29:09.712Z,100727.72
2023-03-29T18:32:12.788Z,100727.72
2023-03-29T18:35:15.934Z,100733.09
2023-03-29T18:38:20.252Z,100728.59
2023-03-29T18:41:23.818Z,100740.16
2023-03-29T18:44:27.394Z,100737.41
2023-03-29T18:47:30.617Z,100740.00
2023-03-29T18:50:34.412Z,100735.50
2023-03-29T18:53:38.900Z,100739.00
2023-03-29T18:56:41.782Z,100735.44
2023-03-29T18:59:44.948Z,100744.38
2023-03-29T19:02:47.988Z,100733.59
2023-03-29T19:05:55.317Z,100733.53
2023-03-29T19:09:01.977Z,100727.31
2023-03-29T19:12:05.367Z,100740.75
2023-03-29T19:15:08.920Z,100739.00
2023-03-29T19:18:11.932Z,100744.38
2023-03-29T19:21:14.815Z,100747.91
2023-03-29T19:24:18.019Z,100745.22
2023-03-29T19:27:21.280Z,100730.00
2023-03-29T19:30:25.833Z,100723.75
2023-03-29T19:33:29.537Z,100724.59
2023-03-29T19:36:34.077Z,100724.59
2023-03-29T19:39:37.100Z,100734.41
2023-03-29T19:42:43.531Z,100737.97
2023-03-29T19:45:47.596Z,100726.34
2023-03-29T19:48:54.850Z,100726.34
2023-03-29T19:51:58.218Z,100714.72
2023-03-29T19:55:02.151Z,100708.47
2023-03-29T19:58:05.131Z,100723.59
2023-03-29T20:01:08.231Z,100712.81
2023-03-29T20:04:11.814Z,100713.72
2023-03-29T20:07:14.555Z,100711.94
2023-03-29T20:10:17.353Z,100713.72
2023-03-29T20:13:31.453Z,100711.00
2023-03-29T20:16:41.755Z,100719.91
2023-03-29T20:19:44.339Z,100714.56
2023-03-29T20:22:48.188Z,100713.69
2023-03-29T20:25:50.775Z,100715.47
2023-03-29T20:28:53.603Z,100714.63
2023-03-29T20:31:56.694Z,100708.37
2023-03-29T20:34:59.606Z,100707.50
2023-03-29T20:38:02.584Z,100708.41
2023-03-29T20:41:05.983Z,100711.94
2023-03-29T20:44:08.833Z,100715.50
2023-03-29T20:47:14.121Z,100720.84
2023-03-29T20:50:18.930Z,100717.28
2023-03-29T20:53:21.755Z,100709.31
2023-03-29T20:56:26.147Z,100711.97
2023-03-29T20:59:29.775Z,100715.56
2023-03-29T21:02:32.527Z,100712.84
2023-03-29T21:05:35.736Z,100711.94
2023-03-29T21:08:38.750Z,100715.44
2023-03-29T21:11:41.617Z,100703.72
2023-03-29T21:14:44.977Z,100722.38
2023-03-29T21:17:48.156Z,100709.81
2023-03-29T21:20:50.777Z,100697.97
2023-03-29T21:23:53.524Z,100711.19
2023-03-29T21:26:56.074Z,100702.03
2023-03-29T21:29:58.887Z,100692.97
2023-03-29T21:33:01.536Z,100694.75
2023-03-29T21:36:05.013Z,100694.87
2023-03-29T21:39:08.027Z,100689.62
2023-03-29T21:42:10.792Z,100683.38
2023-03-29T21:45:13.542Z,100683.44
2023-03-29T21:48:17.571Z,100686.12
2023-03-29T21:51:20.244Z,100686.97
2023-03-29T21:54:23.021Z,100679.66
2023-03-29T21:57:25.652Z,100684.84
2023-03-29T22:00:28.774Z,100678.53
2023-03-29T22:03:31.829Z,100674.87
2023-03-29T22:06:34.302Z,100681.69
2023-03-29T22:09:37.397Z,100673.63
2023-03-29T22:12:41.359Z,100669.12
2023-03-29T22:15:44.135Z,100659.28
2023-03-29T22:18:49.138Z,100651.28
2023-03-29T22:21:51.934Z,100653.03
2023-03-29T22:24:54.856Z,100655.62
2023-03-29T22:27:57.630Z,100653.66
2023-03-29T22:31:08.545Z,100654.69
2023-03-29T22:34:11.567Z,100644.88
2023-03-29T22:37:14.032Z,100640.53
2023-03-29T22:40:18.028Z,100648.47
2023-03-29T22:43:21.518Z,100616.34
2023-03-29T22:46:26.357Z,100643.28
2023-03-29T22:49:28.925Z,100645.97
2023-03-29T22:52:31.752Z,100649.59
2023-03-29T22:55:34.259Z,100631.03
2023-03-29T22:58:37.615Z,100638.31
2023-03-29T23:01:40.548Z,100633.00
2023-03-29T23:04:45.570Z,100626.84
2023-03-29T23:07:48.232Z,100630.47
2023-03-29T23:10:52.171Z,100632.31
2023-03-29T23:13:55.179Z,100623.47
2023-03-29T23:16:58.258Z,100634.19
2023-03-29T23:20:01.273Z,100630.69
2023-03-29T23:23:05.837Z,100632.50
2023-03-29T23:26:09.180Z,100626.31
2023-03-29T23:29:12.169Z,100631.69
2023-03-29T23:32:15.748Z,100643.28
2023-03-29T23:35:19.456Z,100637.97
2023-03-29T23:38:22.417Z,100631.72
2023-03-29T23:41:28.337Z,100624.56
2023-03-29T23:44:30.854Z,100612.09
2023-03-29T23:47:34.446Z,100610.25
2023-03-29T23:50:36.942Z,100623.50
2023-03-29T23:53:39.732Z,100611.09
2023-03-29T23:56:42.230Z,100610.16
2023-03-29T23:59:45.022Z,100608.41
